Time;durP1;ratioP1;P1;durP2;ratioP2;P2;SDS_P1;SDS_P2;PMS_P1;PMS_P2;Temp;Humidity;BMP_temperature;BMP_pressure;BME280_temperature;BME280_humidity;BME280_pressure;Samples;Min_cycle;Max_cycle;Signal;HPM_P1;HPM_P2
2023/04/16 05:00:49;;;;;;;;;15.33;15.00;;;;;;;;5746430;22;46566;-64
2023/04/16 05:03:18;;;;;;;;;15.75;15.25;;;;;;;;4977632;28;45505;-64
2023/04/16 05:05:43;;;;;;;;;14.00;12.67;;;;;;;;4993408;28;45406;-64
2023/04/16 05:08:10;;;;;;;;;15.25;15.25;;;;;;;;4978582;28;45374;-65
2023/04/16 05:10:36;;;;;;;;;16.25;13.00;;;;;;;;4997927;28;45487;-65
2023/04/16 05:13:01;;;;;;;;;14.33;14.33;;;;;;;;4998327;28;45338;-64
2023/04/16 05:15:26;;;;;;;;;19.75;17.75;;;;;;;;4998645;28;45913;-64
2023/04/16 05:17:51;;;;;;;;;30.75;22.75;;;;;;;;4984795;28;45416;-64
2023/04/16 05:20:17;;;;;;;;;24.25;19.00;;;;;;;;4992967;28;46848;-64
2023/04/16 05:22:42;;;;;;;;;23.33;20.33;;;;;;;;4998934;28;45473;-64
2023/04/16 05:25:07;;;;;;;;;24.50;23.50;;;;;;;;4991890;28;46490;-64
2023/04/16 05:27:32;;;;;;;;;27.25;22.50;;;;;;;;4997046;28;45339;-64
2023/04/16 05:29:58;;;;;;;;;22.75;20.50;;;;;;;;4987398;28;45323;-64
2023/04/16 05:32:25;;;;;;;;;28.33;23.67;;;;;;;;4998566;28;45200;-64
2023/04/16 05:34:50;;;;;;;;;27.00;22.67;;;;;;;;4978601;28;47525;-64
2023/04/16 05:37:15;;;;;;;;;29.00;25.33;;;;;;;;4998084;28;45432;-64
2023/04/16 05:39:40;;;;;;;;;35.00;27.50;;;;;;;;4980702;28;45404;-64
2023/04/16 05:42:05;;;;;;;;;33.00;27.00;;;;;;;;4992544;28;45535;-65
2023/04/16 05:44:31;;;;;;;;;35.00;30.25;;;;;;;;4998174;28;45381;-64
2023/04/16 05:46:56;;;;;;;;;29.00;27.75;;;;;;;;4998684;28;45284;-64
2023/04/16 05:49:21;;;;;;;;;34.75;30.00;;;;;;;;4998298;28;45605;-64
2023/04/16 05:51:47;;;;;;;;;30.25;23.75;;;;;;;;4997120;28;45207;-64
2023/04/16 05:54:12;;;;;;;;;25.25;22.75;;;;;;;;4991886;28;46222;-64
2023/04/16 05:56:37;;;;;;;;;27.75;24.75;;;;;;;;4981856;28;45350;-65
2023/04/16 05:59:02;;;;;;;;;32.25;26.75;;;;;;;;4997750;28;45564;-64
2023/04/16 06:01:27;;;;;;;;;30.25;23.50;;;;;;;;4998213;28;45640;-64
2023/04/16 06:03:52;;;;;;;;;24.25;23.25;;;;;;;;4997229;28;46556;-64
2023/04/16 06:06:18;;;;;;;;;28.00;23.33;;;;;;;;4997482;28;45624;-64
2023/04/16 06:08:43;;;;;;;;;30.67;24.67;;;;;;;;4976244;28;45297;-64
2023/04/16 06:11:08;;;;;;;;;24.33;22.33;;;;;;;;4980502;28;45709;-65
2023/04/16 06:13:33;;;;;;;;;33.50;27.00;;;;;;;;4997734;28;45403;-65
2023/04/16 06:15:59;;;;;;;;;27.00;26.00;;;;;;;;4997798;28;45293;-65
2023/04/16 06:18:24;;;;;;;;;25.00;23.50;;;;;;;;4982676;28;45477;-64
2023/04/16 06:20:49;;;;;;;;;27.00;23.25;;;;;;;;4997193;28;45477;-64
2023/04/16 06:23:15;;;;;;;;;30.50;25.50;;;;;;;;4982502;28;47384;-63
2023/04/16 06:25:40;;;;;;;;;29.33;25.33;;;;;;;;4999029;28;45317;-65
2023/04/16 06:28:05;;;;;;;;;29.33;25.67;;;;;;;;4991006;28;45309;-65
2023/04/16 06:30:30;;;;;;;;;28.00;24.50;;;;;;;;5001311;28;45467;-65
2023/04/16 06:32:56;;;;;;;;;37.67;27.00;;;;;;;;5001304;28;46480;-65
2023/04/16 06:35:21;;;;;;;;;30.00;26.00;;;;;;;;5000506;28;45486;-65
2023/04/16 06:37:46;;;;;;;;;30.25;25.25;;;;;;;;5001190;28;45321;-66
2023/04/16 06:40:11;;;;;;;;;36.67;29.67;;;;;;;;4982801;28;45666;-65
2023/04/16 06:42:37;;;;;;;;;32.33;25.67;;;;;;;;4999196;28;46446;-65
2023/04/16 06:45:02;;;;;;;;;28.67;26.33;;;;;;;;4999476;28;45313;-65
2023/04/16 06:47:27;;;;;;;;;24.67;22.33;;;;;;;;5001068;28;45301;-65
2023/04/16 06:49:52;;;;;;;;;34.33;27.67;;;;;;;;5000862;28;45472;-65
2023/04/16 06:52:17;;;;;;;;;27.33;26.33;;;;;;;;4998425;28;45387;-65
2023/04/16 06:54:43;;;;;;;;;29.33;26.00;;;;;;;;4995670;28;45764;-65
2023/04/16 06:57:08;;;;;;;;;31.33;30.00;;;;;;;;4985232;28;45594;-65
2023/04/16 06:59:33;;;;;;;;;37.00;30.67;;;;;;;;4982883;28;45675;-65
2023/04/16 07:01:58;;;;;;;;;33.67;31.00;;;;;;;;4978967;28;46828;-64
2023/04/16 07:04:23;;;;;;;;;36.00;31.67;;;;;;;;4980494;28;45160;-65
2023/04/16 07:06:49;;;;;;;;;37.67;31.67;;;;;;;;4980932;28;45588;-64
2023/04/16 07:09:14;;;;;;;;;43.67;33.33;;;;;;;;4979267;28;45249;-65
2023/04/16 07:11:39;;;;;;;;;35.67;32.00;;;;;;;;4971797;28;47497;-63
2023/04/16 07:14:05;;;;;;;;;37.67;34.33;;;;;;;;4979948;28;45315;-63
2023/04/16 07:16:30;;;;;;;;;32.00;29.00;;;;;;;;4979744;28;45581;-64
2023/04/16 07:18:55;;;;;;;;;39.00;31.33;;;;;;;;4980900;28;45586;-64
2023/04/16 07:21:21;;;;;;;;;33.67;30.33;;;;;;;;4977852;28;46332;-64
2023/04/16 07:23:46;;;;;;;;;35.33;29.67;;;;;;;;4979778;28;45474;-64
2023/04/16 07:26:11;;;;;;;;;31.33;27.00;;;;;;;;4978580;28;45348;-64
2023/04/16 07:28:36;;;;;;;;;32.00;28.67;;;;;;;;4979812;28;45382;-64
2023/04/16 07:31:01;;;;;;;;;26.67;26.33;;;;;;;;4980494;28;45477;-64
2023/04/16 07:33:27;;;;;;;;;34.33;29.33;;;;;;;;4980751;28;45406;-63
2023/04/16 07:35:52;;;;;;;;;33.67;28.00;;;;;;;;4979597;28;45250;-64
2023/04/16 07:38:17;;;;;;;;;29.00;25.67;;;;;;;;4975007;28;45416;-63
2023/04/16 07:40:42;;;;;;;;;21.33;18.00;;;;;;;;4977545;28;46860;-64
2023/04/16 07:43:08;;;;;;;;;26.00;25.00;;;;;;;;4978671;28;45320;-64
2023/04/16 07:45:33;;;;;;;;;35.67;27.67;;;;;;;;4978255;28;45582;-64
2023/04/16 07:47:58;;;;;;;;;31.00;26.67;;;;;;;;4979069;28;46752;-66
2023/04/16 07:50:24;;;;;;;;;36.33;28.67;;;;;;;;4979112;28;47415;-64
2023/04/16 07:52:49;;;;;;;;;27.33;26.00;;;;;;;;4979818;28;45294;-64
2023/04/16 07:55:14;;;;;;;;;28.33;25.33;;;;;;;;4980686;28;45394;-64
2023/04/16 07:57:40;;;;;;;;;26.00;23.33;;;;;;;;4993557;28;45465;-64
2023/04/16 08:00:05;;;;;;;;;25.33;23.67;;;;;;;;4990040;28;46207;-64
2023/04/16 08:02:31;;;;;;;;;21.00;20.00;;;;;;;;5013492;28;45324;-64
2023/04/16 08:04:56;;;;;;;;;23.00;19.67;;;;;;;;4996141;28;45937;-64
2023/04/16 08:07:21;;;;;;;;;23.67;22.33;;;;;;;;5006344;28;45772;-64
2023/04/16 08:09:47;;;;;;;;;24.67;24.67;;;;;;;;5007691;28;45345;-63
2023/04/16 08:12:13;;;;;;;;;26.33;24.00;;;;;;;;5013346;28;45277;-62
2023/04/16 08:14:40;;;;;;;;;23.00;21.33;;;;;;;;5005795;28;45359;-62
2023/04/16 08:17:05;;;;;;;;;28.67;23.00;;;;;;;;5005993;28;45877;-63
2023/04/16 08:19:30;;;;;;;;;23.00;18.67;;;;;;;;4988436;28;46284;-62
2023/04/16 08:21:55;;;;;;;;;20.67;20.67;;;;;;;;4998549;28;45419;-64
2023/04/16 08:24:21;;;;;;;;;24.00;21.33;;;;;;;;4993938;28;45354;-64
2023/04/16 08:26:46;;;;;;;;;24.00;21.67;;;;;;;;4974507;28;45645;-64
2023/04/16 08:29:11;;;;;;;;;23.33;21.67;;;;;;;;4997514;28;46218;-63
2023/04/16 08:31:37;;;;;;;;;24.00;22.67;;;;;;;;4979799;28;46182;-63
2023/04/16 08:34:02;;;;;;;;;29.67;21.00;;;;;;;;4978795;28;45401;-63
2023/04/16 08:36:27;;;;;;;;;21.67;20.67;;;;;;;;4978316;28;45508;-63
2023/04/16 08:38:52;;;;;;;;;21.67;21.00;;;;;;;;4992668;28;45505;-63
2023/04/16 08:41:20;;;;;;;;;22.67;20.67;;;;;;;;4994403;28;46710;-62
2023/04/16 08:43:47;;;;;;;;;26.67;22.67;;;;;;;;4993682;28;46641;-63
2023/04/16 08:46:14;;;;;;;;;19.33;19.33;;;;;;;;4997102;28;45425;-63
2023/04/16 08:48:40;;;;;;;;;21.33;19.33;;;;;;;;4996801;28;46849;-63
2023/04/16 08:51:08;;;;;;;;;20.67;20.67;;;;;;;;4981943;28;45398;-63
2023/04/16 08:53:48;;;;;;;;;19.00;19.00;;;;;;;;4996759;28;45491;-63
2023/04/16 08:56:14;;;;;;;;;26.67;20.67;;;;;;;;4992966;28;45697;-63
2023/04/16 08:58:39;;;;;;;;;20.33;17.67;;;;;;;;4992829;28;45764;-63
2023/04/16 09:01:05;;;;;;;;;21.00;18.67;;;;;;;;4991563;28;45827;-63
2023/04/16 09:03:31;;;;;;;;;20.33;18.33;;;;;;;;4993109;28;45228;-63
2023/04/16 09:05:57;;;;;;;;;16.33;12.00;;;;;;;;4998472;28;45620;-62
2023/04/16 09:08:23;;;;;;;;;16.00;13.67;;;;;;;;4997476;28;46330;-61
2023/04/16 09:10:49;;;;;;;;;22.33;19.00;;;;;;;;4978750;28;45334;-63
2023/04/16 09:13:16;;;;;;;;;15.33;15.33;;;;;;;;4977753;28;45747;-62
2023/04/16 09:15:42;;;;;;;;;20.33;14.00;;;;;;;;4998321;28;45879;-62
2023/04/16 09:18:09;;;;;;;;;15.33;15.33;;;;;;;;4997153;28;45438;-62
2023/04/16 09:20:34;;;;;;;;;16.67;16.33;;;;;;;;4999104;28;45458;-61
2023/04/16 09:22:59;;;;;;;;;13.00;12.33;;;;;;;;4996335;28;45408;-61
2023/04/16 09:25:25;;;;;;;;;13.00;12.00;;;;;;;;4998751;28;45504;-61
2023/04/16 09:27:50;;;;;;;;;12.67;12.67;;;;;;;;5000399;28;45410;-61
2023/04/16 09:30:22;;;;;;;;;16.33;12.00;;;;;;;;5013279;28;45290;-62
2023/04/16 09:32:48;;;;;;;;;13.67;13.33;;;;;;;;4973211;28;45570;-62
2023/04/16 09:35:14;;;;;;;;;12.67;11.00;;;;;;;;4979460;28;45333;-60
2023/04/16 09:37:39;;;;;;;;;13.00;13.00;;;;;;;;4981567;28;46968;-60
2023/04/16 09:40:05;;;;;;;;;15.00;15.00;;;;;;;;4997474;28;45326;-61
2023/04/16 09:42:31;;;;;;;;;13.00;12.00;;;;;;;;4983220;28;45594;-61
2023/04/16 09:44:57;;;;;;;;;15.00;15.00;;;;;;;;5007119;28;45361;-61
2023/04/16 09:47:23;;;;;;;;;16.00;14.67;;;;;;;;5001299;28;45766;-62
2023/04/16 09:49:48;;;;;;;;;14.67;14.00;;;;;;;;4977048;28;45445;-62
2023/04/16 09:52:14;;;;;;;;;14.67;14.33;;;;;;;;4996870;28;45338;-66
2023/04/16 09:54:50;;;;;;;;;12.00;11.67;;;;;;;;4997946;28;45654;-64
2023/04/16 09:57:20;;;;;;;;;15.00;13.00;;;;;;;;4974097;28;47188;-72
2023/04/16 09:59:45;;;;;;;;;10.00;10.00;;;;;;;;4983835;28;45659;-72
2023/04/16 10:02:11;;;;;;;;;14.00;13.67;;;;;;;;5012933;28;45542;-62
2023/04/16 10:04:46;;;;;;;;;14.33;12.00;;;;;;;;4999840;28;45612;-62
2023/04/16 10:07:12;;;;;;;;;13.67;12.67;;;;;;;;4991453;28;47028;-68
2023/04/16 10:09:37;;;;;;;;;18.00;13.00;;;;;;;;4980056;28;47831;-68
2023/04/16 10:12:03;;;;;;;;;16.67;13.00;;;;;;;;4986283;28;45449;-69
2023/04/16 10:14:28;;;;;;;;;14.67;13.67;;;;;;;;4999399;28;45452;-69
2023/04/16 10:16:54;;;;;;;;;16.67;15.33;;;;;;;;5002203;28;45558;-64
2023/04/16 10:19:20;;;;;;;;;10.00;10.00;;;;;;;;4998629;28;45348;-63
2023/04/16 10:21:46;;;;;;;;;12.33;12.33;;;;;;;;5005411;28;45529;-63
2023/04/16 10:24:11;;;;;;;;;10.33;10.00;;;;;;;;5010405;28;45397;-63
2023/04/16 10:26:37;;;;;;;;;16.33;14.67;;;;;;;;4987518;28;47290;-63
2023/04/16 10:29:04;;;;;;;;;12.33;10.33;;;;;;;;5000768;28;45372;-63
2023/04/16 10:31:30;;;;;;;;;10.00;9.00;;;;;;;;4988823;28;45480;-63
2023/04/16 10:33:55;;;;;;;;;16.33;15.33;;;;;;;;5010168;28;45273;-63
2023/04/16 10:36:25;;;;;;;;;12.67;12.67;;;;;;;;4981883;28;47164;-63
2023/04/16 10:38:53;;;;;;;;;17.33;15.00;;;;;;;;4984648;28;45531;-63
2023/04/16 10:41:19;;;;;;;;;15.00;13.00;;;;;;;;5008221;28;45357;-63
2023/04/16 10:43:49;;;;;;;;;9.00;8.67;;;;;;;;4993165;28;45408;-63
2023/04/16 10:46:28;;;;;;;;;9.67;9.00;;;;;;;;5000615;28;46479;-63
2023/04/16 10:48:54;;;;;;;;;12.33;12.33;;;;;;;;5009357;28;45295;-64
2023/04/16 10:51:37;;;;;;;;;10.67;10.00;;;;;;;;5004829;28;45327;-63
2023/04/16 10:54:08;;;;;;;;;11.67;11.67;;;;;;;;5001159;28;45310;-64
2023/04/16 10:56:35;;;;;;;;;12.67;11.67;;;;;;;;5001271;28;45674;-64
2023/04/16 10:59:03;;;;;;;;;11.00;11.00;;;;;;;;5005788;28;45371;-63
2023/04/16 11:01:35;;;;;;;;;10.33;9.33;;;;;;;;4989516;28;45316;-63
2023/04/16 11:04:20;;;;;;;;;10.33;10.33;;;;;;;;5010063;28;45498;-64
2023/04/16 11:07:18;;;;;;;;;6.33;6.33;;;;;;;;5009545;28;46465;-64
2023/04/16 11:09:50;;;;;;;;;7.33;5.67;;;;;;;;4971190;28;45604;-64
2023/04/16 11:12:26;;;;;;;;;8.00;6.67;;;;;;;;5000462;28;45336;-64
2023/04/16 11:14:53;;;;;;;;;5.00;5.00;;;;;;;;4998447;28;45353;-64
2023/04/16 11:17:19;;;;;;;;;7.33;6.00;;;;;;;;5000482;28;45627;-63
2023/04/16 11:19:44;;;;;;;;;9.00;7.33;;;;;;;;5000946;28;45478;-64
2023/04/16 11:22:15;;;;;;;;;8.33;8.33;;;;;;;;4998433;28;45372;-64
2023/04/16 11:24:41;;;;;;;;;9.00;7.33;;;;;;;;4995435;28;45353;-64
2023/04/16 11:27:06;;;;;;;;;10.33;7.33;;;;;;;;5000086;28;46260;-64
2023/04/16 11:29:32;;;;;;;;;9.00;7.67;;;;;;;;4987124;28;45411;-64
2023/04/16 11:31:57;;;;;;;;;9.00;7.00;;;;;;;;5000975;28;45363;-64
2023/04/16 11:34:22;;;;;;;;;10.33;9.00;;;;;;;;4991727;28;45630;-64
2023/04/16 11:36:48;;;;;;;;;8.33;5.00;;;;;;;;4998647;28;46059;-64
2023/04/16 11:39:14;;;;;;;;;3.67;3.67;;;;;;;;4985961;28;45865;-64
2023/04/16 11:41:43;;;;;;;;;6.33;4.33;;;;;;;;4988297;28;45459;-64
2023/04/16 11:44:21;;;;;;;;;7.33;6.00;;;;;;;;5000191;28;45408;-64
2023/04/16 11:46:47;;;;;;;;;7.33;7.33;;;;;;;;4982605;28;46714;-64
2023/04/16 11:49:12;;;;;;;;;7.33;6.33;;;;;;;;4996056;28;45412;-64
2023/04/16 11:51:40;;;;;;;;;7.33;5.33;;;;;;;;5000468;28;45309;-64
2023/04/16 11:54:06;;;;;;;;;4.67;4.67;;;;;;;;4990782;28;45426;-64
2023/04/16 11:56:33;;;;;;;;;8.00;7.67;;;;;;;;5000089;28;45330;-64
2023/04/16 11:59:11;;;;;;;;;7.67;6.00;;;;;;;;4995708;28;45456;-64
2023/04/16 12:01:38;;;;;;;;;8.00;7.00;;;;;;;;5000005;28;45487;-64
2023/04/16 12:04:03;;;;;;;;;11.00;6.00;;;;;;;;4999574;28;45346;-64
2023/04/16 12:06:28;;;;;;;;;4.00;4.00;;;;;;;;4990930;28;48010;-64
2023/04/16 12:08:54;;;;;;;;;6.33;6.00;;;;;;;;4999552;28;45275;-64
2023/04/16 12:11:19;;;;;;;;;6.33;4.33;;;;;;;;4987235;28;45431;-64
2023/04/16 12:14:17;;;;;;;;;7.67;6.00;;;;;;;;4988897;28;45503;-65
2023/04/16 12:16:43;;;;;;;;;4.67;4.00;;;;;;;;4942911;28;45814;-65
2023/04/16 12:19:10;;;;;;;;;7.00;5.00;;;;;;;;4999417;28;45295;-65
2023/04/16 12:21:43;;;;;;;;;5.00;5.00;;;;;;;;4999248;28;45308;-65
2023/04/16 12:24:09;;;;;;;;;4.33;4.33;;;;;;;;4999250;28;45538;-65
2023/04/16 12:26:46;;;;;;;;;6.00;6.00;;;;;;;;4999672;28;45308;-65
2023/04/16 12:29:15;;;;;;;;;4.00;4.00;;;;;;;;4999572;28;45747;-65
2023/04/16 12:31:40;;;;;;;;;4.00;4.00;;;;;;;;4981168;28;45222;-65
2023/04/16 12:34:06;;;;;;;;;3.00;3.00;;;;;;;;4998494;28;45374;-65
2023/04/16 12:36:31;;;;;;;;;4.00;4.00;;;;;;;;4998766;28;45528;-65
2023/04/16 12:38:56;;;;;;;;;4.67;3.00;;;;;;;;4998590;28;45421;-65
2023/04/16 12:41:21;;;;;;;;;5.00;3.67;;;;;;;;4985099;28;45450;-65
2023/04/16 12:43:46;;;;;;;;;5.00;5.00;;;;;;;;4998542;28;45732;-65
2023/04/16 12:46:12;;;;;;;;;4.67;2.67;;;;;;;;4998844;28;45369;-65
2023/04/16 12:48:37;;;;;;;;;2.00;2.00;;;;;;;;4999712;28;45364;-65
2023/04/16 12:51:02;;;;;;;;;4.00;2.33;;;;;;;;4999325;28;45218;-65
2023/04/16 12:53:28;;;;;;;;;4.33;4.33;;;;;;;;4999142;28;45533;-66
2023/04/16 12:55:53;;;;;;;;;6.67;6.00;;;;;;;;4999475;28;45553;-66
2023/04/16 12:58:19;;;;;;;;;3.00;3.00;;;;;;;;4999090;28;45269;-66
2023/04/16 13:00:44;;;;;;;;;5.00;5.00;;;;;;;;4997477;28;45340;-66
2023/04/16 13:03:09;;;;;;;;;5.33;4.33;;;;;;;;4988432;28;45592;-66
2023/04/16 13:05:34;;;;;;;;;5.00;5.00;;;;;;;;4998968;28;47131;-66
2023/04/16 13:08:00;;;;;;;;;4.00;4.00;;;;;;;;4999142;28;45354;-66
2023/04/16 13:10:26;;;;;;;;;4.67;4.00;;;;;;;;4998906;28;45341;-66
2023/04/16 13:12:51;;;;;;;;;6.33;5.67;;;;;;;;4999632;28;45394;-66
2023/04/16 13:15:17;;;;;;;;;6.00;5.00;;;;;;;;4987266;28;46989;-66
2023/04/16 13:17:42;;;;;;;;;3.00;3.00;;;;;;;;4994015;28;45445;-66
2023/04/16 13:20:07;;;;;;;;;3.67;3.67;;;;;;;;4998422;28;45281;-66
2023/04/16 13:22:33;;;;;;;;;5.67;3.67;;;;;;;;4987671;28;45538;-66
2023/04/16 13:24:58;;;;;;;;;4.00;4.00;;;;;;;;4990509;28;47139;-66
2023/04/16 13:27:23;;;;;;;;;5.00;5.00;;;;;;;;4998309;28;45340;-66
2023/04/16 13:29:48;;;;;;;;;4.67;4.00;;;;;;;;4999334;28;45280;-66
2023/04/16 13:32:13;;;;;;;;;3.33;3.33;;;;;;;;4996873;28;45514;-66
2023/04/16 13:34:39;;;;;;;;;6.00;4.67;;;;;;;;4998986;28;45269;-68
2023/04/16 13:37:05;;;;;;;;;6.67;3.00;;;;;;;;4994884;28;45478;-68
2023/04/16 13:39:30;;;;;;;;;6.33;6.33;;;;;;;;4998929;28;45233;-67
2023/04/16 13:41:55;;;;;;;;;5.33;5.33;;;;;;;;4998847;28;45237;-68
2023/04/16 13:44:20;;;;;;;;;6.00;6.00;;;;;;;;4987654;28;46905;-68
2023/04/16 13:46:48;;;;;;;;;6.00;5.00;;;;;;;;4982974;28;45619;-69
2023/04/16 13:49:14;;;;;;;;;4.00;4.00;;;;;;;;4998487;28;45366;-68
2023/04/16 13:51:42;;;;;;;;;6.00;6.00;;;;;;;;4988536;28;45687;-69
2023/04/16 13:54:07;;;;;;;;;3.00;1.00;;;;;;;;4996757;28;46346;-68
2023/04/16 13:56:32;;;;;;;;;6.67;5.00;;;;;;;;4997041;28;45329;-68
2023/04/16 13:58:58;;;;;;;;;8.00;5.00;;;;;;;;4998946;28;45438;-69
2023/04/16 14:01:23;;;;;;;;;8.33;7.00;;;;;;;;4988292;28;45244;-68
2023/04/16 14:03:48;;;;;;;;;4.67;3.00;;;;;;;;4990120;28;48093;-69
2023/04/16 14:06:16;;;;;;;;;7.33;6.33;;;;;;;;4998232;28;45246;-69
2023/04/16 14:08:41;;;;;;;;;8.00;5.00;;;;;;;;4998636;28;45473;-69
2023/04/16 14:11:08;;;;;;;;;6.33;5.33;;;;;;;;4993215;28;45409;-68
2023/04/16 14:13:33;;;;;;;;;6.33;5.67;;;;;;;;4986739;28;48108;-69
2023/04/16 14:15:58;;;;;;;;;9.33;6.00;;;;;;;;4998280;28;45291;-67
2023/04/16 14:18:23;;;;;;;;;8.67;8.00;;;;;;;;4998493;28;45470;-69
2023/04/16 14:20:49;;;;;;;;;6.00;6.00;;;;;;;;4998108;28;45488;-69
2023/04/16 14:23:14;;;;;;;;;4.67;4.67;;;;;;;;4997875;28;46515;-68
2023/04/16 14:25:39;;;;;;;;;4.00;4.00;;;;;;;;4998261;28;45772;-69
2023/04/16 14:28:04;;;;;;;;;6.00;6.00;;;;;;;;4984385;28;45270;-69
2023/04/16 14:30:30;;;;;;;;;4.00;4.00;;;;;;;;4998254;28;45542;-69
2023/04/16 14:32:55;;;;;;;;;6.00;6.00;;;;;;;;4998130;28;45510;-68
2023/04/16 14:35:20;;;;;;;;;8.00;5.33;;;;;;;;4997667;28;45376;-68
2023/04/16 14:37:46;;;;;;;;;7.33;4.00;;;;;;;;4994230;28;45708;-69
2023/04/16 14:40:11;;;;;;;;;5.67;5.00;;;;;;;;4979172;28;45621;-68
2023/04/16 14:42:36;;;;;;;;;5.33;5.33;;;;;;;;4984468;28;47877;-67
2023/04/16 14:45:05;;;;;;;;;5.00;5.00;;;;;;;;4988099;28;45499;-69
2023/04/16 14:47:30;;;;;;;;;9.00;7.00;;;;;;;;5001516;28;45440;-69
2023/04/16 14:49:55;;;;;;;;;7.67;6.67;;;;;;;;4986099;28;45238;-69
2023/04/16 14:52:20;;;;;;;;;5.33;5.33;;;;;;;;5000894;28;46477;-68
2023/04/16 14:54:46;;;;;;;;;6.00;5.00;;;;;;;;5001149;28;45440;-69
2023/04/16 14:57:12;;;;;;;;;6.00;5.00;;;;;;;;5001185;28;45217;-69
2023/04/16 14:59:37;;;;;;;;;7.00;4.00;;;;;;;;4989658;28;45243;-69
2023/04/16 15:02:02;;;;;;;;;5.00;5.00;;;;;;;;5001033;28;45485;-68
2023/04/16 15:04:28;;;;;;;;;6.33;5.00;;;;;;;;4999779;28;45441;-68
2023/04/16 15:06:57;;;;;;;;;5.00;5.00;;;;;;;;4983604;28;45412;-68
2023/04/16 15:09:22;;;;;;;;;5.00;5.00;;;;;;;;5000229;28;45571;-68
2023/04/16 15:11:48;;;;;;;;;6.00;5.00;;;;;;;;4989887;28;48147;-68
2023/04/16 15:14:13;;;;;;;;;6.67;5.67;;;;;;;;5000672;28;45440;-68
2023/04/16 15:16:38;;;;;;;;;4.00;4.00;;;;;;;;5001395;28;45338;-68
2023/04/16 15:19:03;;;;;;;;;4.00;4.00;;;;;;;;5000849;28;45443;-69
2023/04/16 15:21:30;;;;;;;;;7.33;6.33;;;;;;;;4999235;28;45440;-69
2023/04/16 15:23:55;;;;;;;;;6.67;6.00;;;;;;;;4997238;28;45390;-69
2023/04/16 15:26:21;;;;;;;;;6.00;6.00;;;;;;;;5000549;28;45463;-66
2023/04/16 15:28:47;;;;;;;;;11.00;8.00;;;;;;;;5001321;28;45304;-68
2023/04/16 15:31:12;;;;;;;;;5.00;5.00;;;;;;;;5000377;28;45297;-68
2023/04/16 15:33:37;;;;;;;;;7.00;6.33;;;;;;;;4998720;28;45320;-68
2023/04/16 15:36:02;;;;;;;;;5.00;5.00;;;;;;;;4991943;28;45413;-65
2023/04/16 15:38:29;;;;;;;;;8.00;6.00;;;;;;;;4998691;28;45856;-68
2023/04/16 15:40:56;;;;;;;;;5.33;5.33;;;;;;;;5000504;28;45405;-67
2023/04/16 15:43:22;;;;;;;;;4.00;3.67;;;;;;;;4988274;28;45535;-67
2023/04/16 15:45:47;;;;;;;;;5.67;5.67;;;;;;;;5000884;28;45578;-68
2023/04/16 15:48:13;;;;;;;;;4.00;4.00;;;;;;;;4982297;28;45548;-68
2023/04/16 15:50:38;;;;;;;;;4.00;3.00;;;;;;;;4989029;28;46383;-67
2023/04/16 15:53:03;;;;;;;;;4.33;4.33;;;;;;;;4987458;28;45634;-67
2023/04/16 15:55:28;;;;;;;;;4.33;4.33;;;;;;;;5000315;28;45359;-67
2023/04/16 15:57:53;;;;;;;;;7.00;4.00;;;;;;;;4999575;28;45297;-67
2023/04/16 16:00:20;;;;;;;;;5.00;5.00;;;;;;;;4990929;28;48221;-67
2023/04/16 16:02:45;;;;;;;;;4.00;4.00;;;;;;;;4988225;28;45474;-67
2023/04/16 16:05:12;;;;;;;;;6.00;5.00;;;;;;;;4995669;28;45586;-67
2023/04/16 16:07:37;;;;;;;;;5.00;4.00;;;;;;;;5002944;28;45257;-66
2023/04/16 16:10:04;;;;;;;;;4.00;4.00;;;;;;;;4983055;28;47886;-67
2023/04/16 16:12:30;;;;;;;;;5.00;5.00;;;;;;;;4985735;28;45573;-67
2023/04/16 16:14:55;;;;;;;;;3.67;3.33;;;;;;;;5002568;28;45474;-67
2023/04/16 16:17:20;;;;;;;;;5.33;5.33;;;;;;;;5004220;28;45677;-67
2023/04/16 16:19:46;;;;;;;;;6.33;6.33;;;;;;;;4984768;28;46975;-67
2023/04/16 16:22:11;;;;;;;;;4.67;4.67;;;;;;;;4985167;28;45418;-67
2023/04/16 16:24:37;;;;;;;;;9.00;7.00;;;;;;;;4984630;28;45456;-67
2023/04/16 16:27:02;;;;;;;;;5.00;5.00;;;;;;;;4986734;28;45282;-67
2023/04/16 16:29:27;;;;;;;;;7.00;6.00;;;;;;;;5002523;28;45475;-67
2023/04/16 16:31:53;;;;;;;;;4.33;4.00;;;;;;;;5005531;28;45306;-67
2023/04/16 16:34:18;;;;;;;;;5.00;3.33;;;;;;;;5002828;28;45175;-67
2023/04/16 16:36:47;;;;;;;;;4.33;3.33;;;;;;;;5001034;28;45158;-67
2023/04/16 16:39:12;;;;;;;;;3.33;3.33;;;;;;;;4990267;28;47478;-67
2023/04/16 16:41:40;;;;;;;;;5.33;4.00;;;;;;;;4987707;28;45346;-67
2023/04/16 16:44:06;;;;;;;;;3.33;3.33;;;;;;;;5002463;28;45453;-67
2023/04/16 16:46:31;;;;;;;;;4.67;4.33;;;;;;;;4988202;28;45425;-67
2023/04/16 16:48:57;;;;;;;;;3.67;3.00;;;;;;;;5002887;28;45630;-67
2023/04/16 16:51:22;;;;;;;;;3.00;3.00;;;;;;;;4981571;28;45664;-67
2023/04/16 16:53:47;;;;;;;;;2.00;2.00;;;;;;;;5001930;28;45271;-67
2023/04/16 16:56:12;;;;;;;;;6.67;6.00;;;;;;;;4991708;28;45436;-67
2023/04/16 16:58:38;;;;;;;;;3.67;3.67;;;;;;;;5002479;28;46357;-67
2023/04/16 17:01:03;;;;;;;;;5.00;4.00;;;;;;;;4998973;28;45242;-68
2023/04/16 17:03:28;;;;;;;;;4.00;4.00;;;;;;;;4985527;28;45474;-68
2023/04/16 17:05:53;;;;;;;;;4.00;4.00;;;;;;;;4989813;28;45356;-68
2023/04/16 17:08:18;;;;;;;;;3.00;3.00;;;;;;;;4998290;28;45256;-68
2023/04/16 17:10:44;;;;;;;;;3.67;3.00;;;;;;;;4999563;28;45377;-68
2023/04/16 17:13:09;;;;;;;;;4.67;4.67;;;;;;;;4995814;28;45305;-67
2023/04/16 17:15:34;;;;;;;;;5.00;3.00;;;;;;;;4999319;28;45248;-68
2023/04/16 17:17:59;;;;;;;;;2.33;2.33;;;;;;;;4998919;28;45317;-67
2023/04/16 17:20:25;;;;;;;;;4.50;3.00;;;;;;;;4992828;28;45647;-68
2023/04/16 17:22:50;;;;;;;;;6.00;5.00;;;;;;;;4987107;28;45463;-67
2023/04/16 17:25:15;;;;;;;;;3.00;3.00;;;;;;;;4996632;28;45468;-68
2023/04/16 17:27:40;;;;;;;;;3.33;2.00;;;;;;;;4994445;28;46369;-68
2023/04/16 17:30:07;;;;;;;;;3.00;3.00;;;;;;;;4984989;28;45764;-68
2023/04/16 17:32:32;;;;;;;;;3.00;3.00;;;;;;;;4999063;28;45408;-68
2023/04/16 17:34:58;;;;;;;;;2.00;2.00;;;;;;;;4998907;28;45383;-67
2023/04/16 17:37:24;;;;;;;;;3.33;3.33;;;;;;;;4995790;28;46173;-68
2023/04/16 17:39:50;;;;;;;;;4.00;2.33;;;;;;;;4985691;28;45619;-68
2023/04/16 17:42:15;;;;;;;;;3.33;2.33;;;;;;;;4995220;28;45280;-68
2023/04/16 17:44:40;;;;;;;;;2.00;2.00;;;;;;;;4977782;28;45673;-65
2023/04/16 17:47:05;;;;;;;;;3.67;3.67;;;;;;;;4974464;28;48181;-65
2023/04/16 17:49:31;;;;;;;;;2.67;2.67;;;;;;;;4996783;28;45420;-62
2023/04/16 17:51:56;;;;;;;;;7.00;4.00;;;;;;;;4998193;28;46659;-61
2023/04/16 17:54:21;;;;;;;;;4.00;4.00;;;;;;;;4992896;28;46131;-62
2023/04/16 17:56:47;;;;;;;;;4.00;4.00;;;;;;;;4978944;28;47540;-62
2023/04/16 17:59:12;;;;;;;;;2.67;2.33;;;;;;;;4975141;28;45923;-60
2023/04/16 18:01:37;;;;;;;;;2.00;2.00;;;;;;;;4998622;28;45736;-61
2023/04/16 18:04:03;;;;;;;;;2.00;2.00;;;;;;;;4975816;28;45437;-61
2023/04/16 18:06:28;;;;;;;;;2.67;2.67;;;;;;;;4976171;28;47519;-61
2023/04/16 18:08:53;;;;;;;;;3.67;3.67;;;;;;;;4998414;28;45516;-61
2023/04/16 18:11:18;;;;;;;;;3.00;3.00;;;;;;;;4992293;28;45381;-61
2023/04/16 18:13:43;;;;;;;;;3.00;3.00;;;;;;;;4995854;28;45692;-61
2023/04/16 18:16:16;;;;;;;;;4.67;3.00;;;;;;;;4980892;28;45494;-61
2023/04/16 18:18:42;;;;;;;;;7.00;3.33;;;;;;;;4989252;28;45364;-61
2023/04/16 18:21:07;;;;;;;;;4.67;4.33;;;;;;;;5003782;28;45482;-61
2023/04/16 18:23:32;;;;;;;;;5.67;3.67;;;;;;;;5011955;28;45752;-61
2023/04/16 18:25:57;;;;;;;;;4.67;3.67;;;;;;;;5006119;28;45471;-61
2023/04/16 18:28:23;;;;;;;;;3.67;3.67;;;;;;;;4992076;28;45422;-61
2023/04/16 18:30:48;;;;;;;;;3.67;3.67;;;;;;;;5000607;28;45571;-61
2023/04/16 18:33:13;;;;;;;;;6.33;4.67;;;;;;;;5006684;28;45579;-62
2023/04/16 18:35:39;;;;;;;;;5.33;5.33;;;;;;;;5003592;28;45356;-62
2023/04/16 18:38:04;;;;;;;;;6.00;4.00;;;;;;;;4981212;28;45631;-62
2023/04/16 18:40:32;;;;;;;;;5.33;4.33;;;;;;;;5000587;28;45473;-62
2023/04/16 18:42:57;;;;;;;;;3.67;3.67;;;;;;;;4996574;28;45737;-62
2023/04/16 18:45:22;;;;;;;;;3.33;3.33;;;;;;;;5004188;28;45413;-62
2023/04/16 18:47:49;;;;;;;;;3.67;3.67;;;;;;;;4989091;28;45355;-63
2023/04/16 18:50:14;;;;;;;;;2.00;2.00;;;;;;;;5000856;28;45507;-62
2023/04/16 18:52:39;;;;;;;;;3.00;3.00;;;;;;;;5002467;28;45786;-61
2023/04/16 18:55:04;;;;;;;;;4.67;3.33;;;;;;;;5001750;28;47742;-61
2023/04/16 18:57:30;;;;;;;;;3.00;2.67;;;;;;;;4998618;28;45597;-64
2023/04/16 18:59:55;;;;;;;;;5.00;5.00;;;;;;;;4998032;28;45433;-62
2023/04/16 19:02:20;;;;;;;;;5.00;3.00;;;;;;;;5003505;28;45344;-61
2023/04/16 19:04:45;;;;;;;;;2.67;2.67;;;;;;;;4998699;28;46641;-62
2023/04/16 19:07:10;;;;;;;;;4.00;3.33;;;;;;;;4988537;28;45524;-61
2023/04/16 19:09:36;;;;;;;;;2.67;2.67;;;;;;;;5010588;28;45595;-60
2023/04/16 19:12:01;;;;;;;;;3.00;3.00;;;;;;;;4999791;28;45507;-61
2023/04/16 19:14:26;;;;;;;;;4.00;4.00;;;;;;;;4980894;28;46200;-62
2023/04/16 19:16:52;;;;;;;;;6.00;5.00;;;;;;;;5004890;28;45627;-61
2023/04/16 19:19:17;;;;;;;;;2.33;2.33;;;;;;;;4998605;28;45508;-62
2023/04/16 19:21:42;;;;;;;;;4.00;3.67;;;;;;;;5000210;28;45706;-61
2023/04/16 19:24:07;;;;;;;;;5.00;3.50;;;;;;;;5000290;28;45432;-61